LEASLEVX

Guest
Details From LEAS - Asturias
To LEVX - Vigo
Flight Number -
Tags generated
Created
Modified
Stats Distance 139 nm / 258 km
Max Altitude 14,900 ft / 4,542 m
Waypoints 3
Social Downloads 6
Likes 0
Share VATSIM

Download

Looking for another format? Having issues loading an existing format? Contact us
Advertisement - Login to hide

Notes

Basic altitude profile: - Ascent Rate: 2500ft/min - Ascent Speed: 250kts - Cruise Altitude: 35000ft - Cruise Speed: 420kts - Descent Rate: 1500ft/min - Descent Speed: 250kts Options: - Use NATs: yes - Use PACOTS: yes - Use low airways: yes - Use high airways: yes

Route

LEAS LOMDA LEVX

ID Type Via Altitude Latitude Longitude Leg Dist Tot Dist Heading (true) Name
O LEAS APT - 0 ft / 0 m 43.56350˚ -6.03467˚ - 0 nm - Asturias
LOMDA FIX - 14,900 ft / 4,542 m 42.85280˚ -7.29602˚ 69 nm 69 nm 233° / 232° -
O LEVX APT - 0 ft / 0 m 42.23189˚ -8.62677˚ 69 nm 139 nm 238° / 237° Vigo

Altitude Profile

Advertisement - Login to hide

LEAS

Details ICAO LEAS (OVD)
Name Asturias
Region Spain
Timezone Europe/Madrid (UTC+2.0)
Stats Elevation 416 ft / 127 m (AMSL)
Location 43.563496° -6.034670°
Runways 1
Magnetic Variation 1.572° W

METAR

LEAS 210400Z VRB02KT CAVOK 11/10 Q1011 NOSIG

Decode

TAF

TAF LEAS 210200Z 2103/2203 VRB03KT 8000 FEW020 TX19/2114Z TN11/2107Z PROB40 TEMPO 2106/2109 3000 BR BKN010 BECMG 2108/2112 03010KT PROB40 TEMPO 2112/2121 SCT030TCU BECMG 2118/2122 VRB03KT PROB40 TEMPO 2121/2203 3000 BR BKN005 BKN010 PROB40 TEMPO 2200/2203 0600 BCFG VV002

Decode

Departure Runways

ID Width Length Bearing (true) Bearing (mag) Surface Threshold Offset Overrun Length
11 148 ft / 45 m 7,216 ft / 2,200 m 108.09° 109.66° Asphalt 0 ft / 0 m 164 ft / 50 m
29 148 ft / 45 m 7,216 ft / 2,200 m 288.10° 289.67° Asphalt 0 ft / 0 m 164 ft / 50 m

LEVX

Details ICAO LEVX (VGO)
Name Vigo
Region Spain
Timezone Europe/Madrid (UTC+2.0)
Stats Elevation 855 ft / 261 m (AMSL)
Location 42.231894° -8.626774°
Runways 1
Magnetic Variation 2.333° W

METAR

LEVX 210400Z 19009KT 8000 BKN003 11/11 Q1011 TEMPO 3000 BR

Decode

TAF

TAF AMD LEVX 210356Z 2103/2124 22008KT CAVOK TX22/2113Z TN12/2107Z BECMG 2110/2112 28010KT PROB40 TEMPO 2103/2109 3000 BR BKN005 PROB40 TEMPO 2112/2121 SCT030TCU BECMG 2120/2124 VRB03KT

Decode

Destination Runways

ID Width Length Bearing (true) Bearing (mag) Surface Threshold Offset Overrun Length
02 148 ft / 45 m 7,905 ft / 2,409 m 11.38° 13.71° Asphalt 0 ft / 0 m 164 ft / 50 m
20 148 ft / 45 m 7,905 ft / 2,409 m 191.38° 193.71° Asphalt 0 ft / 0 m 164 ft / 50 m

Approach Navaids

Runway Type Ident Frequency Range Bearing (true) Bearing (mag) Slope Elevation
20 Localiser VIG 110.90 MHz 18 nm / 33 km 191.38° 193.71° - 855 ft / 261 m (AMSL)
20 Glidescope VIG 110.90 MHz 10 nm / 19 km 191.38° 193.71° 3.00° 855 ft / 261 m (AMSL)
20 DME VIG 110.90 MHz 18 nm / 33 km - - - 833 ft / 254 m (AMSL)

Popular Alternatives